Last 7 Days

Suisun Valley (SSV)

Hourly Data | America/Los_Angeles
as of 4/23/19 4:54 PM PDT
Date & Time Temp (°F) RH (%) Dew Pt (°F) Wind Spd (mph) Wind Dir (°) Wind Gust (mph) Wind Gst Dir (°) Latest Rain (In) Solar Rad Tot Hr (Cal/cm2) Daily Rain (In) Daily Min Temp (°F) Daily Max Temp (°F)
4/23/19 - 1500 89.2 32 55.5 4.0 SW | 216 8.6 SW | 226 0.00 98 0.00 53.0 90.6
4/23/19 - 1400 86.9 32 53.5 3.6 S | 175 8.3 SSW | 193 0.00 104 0.00 53.0 88.1
4/23/19 - 1300 84.7 36 54.7 3.3 S | 181 7.8 S | 174 0.00 104 0.00 53.0 85.9
4/23/19 - 1200 81.1 40 54.6 3.5 SSE | 164 8.4 SE | 136 0.00 96 0.00 53.0 83.1
4/23/19 - 1100 77.9 43 53.8 4.3 SSE | 153 9.0 SE | 138 0.00 81 0.00 53.0 78.9
4/23/19 - 1000 73.8 50 53.8 2.7 SSE | 159 7.3 SE | 143 0.00 59 0.00 53.0 76.2
4/23/19 - 0900 68.7 60 54.4 0.6 ESE | 109 3.3 SSE | 154 0.00 40 0.00 53.0 73.0
4/23/19 - 0800 60.2 78 53.4 0.7 N | 351 3.6 NNW | 348 0.00 20 0.00 53.0 73.0
4/23/19 - 0700 53.7 88 50.3 0.5 NNW | 328 3.8 NW | 308 0.00 2 0.00 53.0 73.0
4/23/19 - 0600 54.7 87 50.8 1.1 SSW | 212 3.8 SW | 230 0.00 0 0.00 53.6 73.0
4/23/19 - 0500 58.2 79 51.8 1.7 SSW | 209 6.6 SSW | 200 0.00 0 0.00 56.2 73.0
4/23/19 - 0400 67.1 49 46.0 4.2 SE | 124 9.6 N | 353 0.00 0 0.00 60.0 73.0
4/23/19 - 0300 71.5 34 42.0 6.5 N | 0 10.0 N | 1 0.00 0 0.00 71.0 72.7
4/23/19 - 0200 72.0 33 41.1 5.9 N | 359 9.0 N | 2 0.00 0 0.00 71.0 72.7
4/23/19 - 0100 72.0 31 40.0 7.5 N | 357 12.0 N | 4 0.00 0 0.00 71.5 72.7
4/23/19 - 0000 71.7 30 38.2 7.9 N | 358 11.5 E | 86 0.00 0 0.00 47.7 88.3
4/22/19 - 2300 71.7 27 36.0 6.5 N | 357 10.3 NNW | 327 0.00 0 0.00 47.7 88.3
4/22/19 - 2200 66.4 36 38.3 1.9 WNW | 284 8.3 NNW | 335 0.00 0 0.00 47.7 88.3
4/22/19 - 2100 68.1 36 40.0 0.8 SW | 222 3.6 SW | 230 0.00 0 0.00 47.7 88.3
4/22/19 - 2000 78.4 18 31.0 1.8 NE | 40 8.1 W | 276 0.00 4 0.00 47.7 88.3
4/22/19 - 1900 84.6 13 29.0 4.9 WNW | 303 11.8 N | 10 0.00 23 0.00 47.7 88.3
4/22/19 - 1800 87.2 11 27.3 7.6 N | 351 12.6 NNW | 343 0.00 51 0.00 47.7 88.3
4/22/19 - 1700 87.8 10 23.6 8.3 NNW | 348 13.8 NNE | 12 0.00 72 0.00 47.7 88.3
4/22/19 - 1600 87.5 12 27.6 8.6 NNW | 330 17.7 WNW | 297 0.00 91 0.00 47.7 88.0
4/22/19 - 1500 86.6 13 29.7 8.9 NW | 314 14.6 NW | 313 0.00 103 0.00 47.7 87.5
4/22/19 - 1400 85.0 16 34.1 7.4 NW | 325 14.5 NNW | 340 0.00 109 0.00 47.7 86.4
4/22/19 - 1300 82.7 19 36.8 8.5 NW | 324 16.5 NW | 311 0.00 107 0.00 47.7 83.9
4/22/19 - 1200 80.3 23 39.2 6.8 NW | 326 12.3 NNW | 347 0.00 99 0.00 47.7 81.4
4/22/19 - 1100 77.9 27 41.2 7.8 NNW | 334 14.6 N | 3 0.00 84 0.00 47.7 79.7
4/22/19 - 1000 74.5 31 41.6 8.1 N | 352 14.6 NNW | 328 0.00 65 0.00 47.7 76.3
4/22/19 - 0900 70.4 36 42.4 5.8 N | 351 13.5 N | 5 0.00 42 0.00 47.7 72.4
4/22/19 - 0800 64.1 47 43.5 3.7 NE | 37 10.3 N | 0 0.00 19 0.00 47.7 67.5
4/22/19 - 0700 52.9 75 45.0 1.6 WSW | 254 11.1 N | 352 0.00 2 0.00 47.7 62.0
4/22/19 - 0600 48.4 88 45.1 1.3 SSW | 196 3.8 SSW | 209 0.00 0 0.00 47.7 53.5
4/22/19 - 0500 50.8 84 46.1 1.6 S | 178 5.4 S | 174 0.00 0 0.00 49.5 53.5
4/22/19 - 0400 50.9 84 46.2 1.0 SSW | 202 4.8 S | 171 0.00 0 0.00 50.1 53.5
4/22/19 - 0300 51.5 84 47.0 1.3 SSW | 196 5.6 S | 190 0.00 0 0.00 50.8 53.5
4/22/19 - 0200 52.8 84 48.0 1.7 SSW | 210 5.6 SSW | 202 0.00 0 0.00 51.1 53.5
4/22/19 - 0100 52.2 88 48.9 1.4 SSW | 204 4.1 WSW | 239 0.00 0 0.00 51.1 53.4
4/22/19 - 0000 51.9 90 49.1 1.0 NW | 325 3.8 NNW | 327 0.00 0 0.00 43.8 75.1
4/21/19 - 2300 53.6 86 49.6 0.9 NW | 322 3.1 NW | 311 0.00 0 0.00 43.8 75.1
4/21/19 - 2200 56.2 80 50.1 0.6 NNW | 347 2.9 NE | 52 0.00 0 0.00 43.8 75.1
4/21/19 - 2100 61.8 65 49.7 0.9 NNW | 338 4.6 WSW | 255 0.00 0 0.00 43.8 75.1
4/21/19 - 2000 67.8 48 47.1 6.4 WSW | 252 14.6 WSW | 247 0.00 4 0.00 43.8 75.1
4/21/19 - 1900 70.4 45 47.9 9.8 WSW | 240 16.3 W | 279 0.00 25 0.00 43.8 75.1
4/21/19 - 1800 72.7 43 48.8 9.4 WSW | 240 16.2 SW | 236 0.00 49 0.00 43.8 75.1
4/21/19 - 1700 74.1 43 49.9 9.5 WSW | 248 16.3 W | 276 0.00 71 0.00 43.8 75.1
4/21/19 - 1600 73.5 46 51.4 12.1 WSW | 250 20.0 WSW | 247 0.00 89 0.00 43.8 75.1
4/21/19 - 1500 74.4 46 52.2 9.6 WSW | 242 15.7 SW | 223 0.00 98 0.00 43.8 75.1
4/21/19 - 1400 72.2 49 52.2 8.3 SW | 214 15.3 SSW | 199 0.00 107 0.00 43.8 73.2
4/21/19 - 1300 70.7 49 50.4 4.7 S | 179 11.3 SSE | 150 0.00 106 0.00 43.8 72.3
4/21/19 - 1200 67.6 54 50.2 6.0 SSE | 155 10.1 SSE | 148 0.00 98 0.00 43.8 68.5
4/21/19 - 1100 65.7 55 49.3 3.6 SSE | 148 10.0 SE | 144 0.00 83 0.00 43.8 67.1
4/21/19 - 1000 62.7 62 49.3 3.4 SE | 139 6.3 SE | 133 0.00 63 0.00 43.8 64.1
4/21/19 - 0900 58.7 72 49.8 0.8 SE | 133 3.4 SSE | 155 0.00 41 0.00 43.8 61.5
4/21/19 - 0800 50.0 94 48.4 0.1 NNW | 336 1.7 NNW | 337 0.00 19 0.00 43.8 55.4
4/21/19 - 0700 44.5 96 43.4 0.4 NNW | 333 2.4 NNW | 339 0.00 2 0.00 43.8 50.0
4/21/19 - 0600 45.1 96 44.0 0.5 NW | 322 2.1 WNW | 303 0.00 0 0.00 44.6 50.0
4/21/19 - 0500 45.4 95 43.9 0.6 NNW | 329 2.2 SSE | 166 0.00 0 0.00 44.6 50.0
4/21/19 - 0400 46.9 93 45.0 0.6 NW | 308 3.6 NNE | 22 0.00 0 0.00 46.4 50.0
4/21/19 - 0300 48.3 91 45.8 1.2 SSE | 168 3.3 SSE | 151 0.00 0 0.00 47.4 50.0
4/21/19 - 0200 48.7 90 45.9 0.8 E | 95 5.1 NNE | 22 0.00 0 0.00 47.9 50.0
4/21/19 - 0100 49.6 89 46.5 0.6 SW | 225 4.1 WSW | 258 0.00 0 0.00 49.3 50.0
4/21/19 - 0000 50.2 88 46.8 1.0 NE | 47 3.8 ESE | 107 0.00 0 0.00 49.6 68.1
4/20/19 - 2300 51.4 85 47.1 0.7 SW | 231 3.1 ESE | 102 0.00 0 0.00 50.6 68.1
4/20/19 - 2200 53.9 79 47.6 1.3 E | 87 4.6 NE | 54 0.00 0 0.00 52.3 68.1
4/20/19 - 2100 57.3 70 47.7 4.0 SW | 228 12.1 WSW | 242 0.00 0 0.00 53.2 68.1
4/20/19 - 2000 61.5 60 47.5 6.7 WSW | 239 16.5 SW | 234 0.00 3 0.00 53.2 68.1
4/20/19 - 1900 63.2 58 48.1 10.6 SW | 233 16.8 SW | 216 0.00 24 0.00 53.2 68.1
4/20/19 - 1800 64.0 59 49.4 11.0 SSW | 212 16.5 S | 190 0.00 47 0.00 53.2 68.1
4/20/19 - 1700 64.4 59 49.7 12.9 SW | 231 20.5 SW | 236 0.00 55 0.00 53.2 68.1
4/20/19 - 1600 65.9 57 50.2 12.2 SW | 220 21.9 SW | 229 0.00 89 0.00 53.2 68.1
4/20/19 - 1500 66.9 58 51.6 10.4 SW | 220 20.2 S | 185 0.00 101 0.00 53.2 68.1
4/20/19 - 1400 67.2 60 52.9 10.9 SSW | 206 20.4 S | 175 0.00 98 0.00 53.2 68.1
4/20/19 - 1300 66.4 63 53.6 9.0 SSW | 211 16.0 SSW | 198 0.00 82 0.00 53.2 68.0
4/20/19 - 1200 65.8 65 53.6 9.4 SW | 216 16.5 S | 188 0.00 102 0.00 53.2 66.6
4/20/19 - 1100 63.4 69 52.9 7.1 WSW | 250 13.8 WNW | 289 0.00 81 0.00 53.2 66.1
4/20/19 - 1000 58.3 79 51.7 7.8 WSW | 252 15.3 W | 269 0.00 40 0.00 53.2 60.8
4/20/19 - 0900 55.4 85 51.0 5.4 W | 269 13.0 WNW | 290 0.00 14 0.00 53.2 56.8
4/20/19 - 0800 54.4 87 50.6 8.4 WSW | 253 16.2 SW | 233 0.00 5 0.00 53.2 56.0
4/20/19 - 0700 54.1 88 50.7 4.1 W | 267 11.6 W | 274 0.00 0 0.00 53.2 56.0
4/20/19 - 0600 53.6 90 50.6 6.2 W | 263 16.5 WSW | 253 0.00 0 0.00 53.2 56.0
4/20/19 - 0500 53.6 88 50.1 8.2 WSW | 249 17.3 WSW | 255 0.00 0 0.00 53.2 56.0
4/20/19 - 0400 54.2 87 50.4 8.0 WSW | 254 15.3 WNW | 282 0.00 0 0.00 53.8 56.0
4/20/19 - 0300 54.6 87 50.9 7.8 WSW | 252 17.7 WSW | 255 0.00 0 0.00 54.3 56.0
4/20/19 - 0200 55.5 86 51.4 4.7 WSW | 252 11.8 WSW | 246 0.00 0 0.00 55.0 56.0
4/20/19 - 0100 55.8 85 51.3 6.0 SW | 232 11.8 SW | 221 0.00 0 0.00 55.6 56.0
4/20/19 - 0000 56.1 83 51.0 6.8 SSW | 208 11.3 S | 182 0.00 0 0.00 50.7 82.8
4/19/19 - 2300 57.4 78 50.5 7.1 SSW | 210 11.1 SSW | 210 0.00 0 0.00 50.7 82.8
4/19/19 - 2200 59.0 74 50.9 3.7 S | 189 7.1 S | 174 0.00 0 0.00 50.7 82.8
4/19/19 - 2100 62.8 62 49.6 3.3 SW | 222 9.5 W | 280 0.00 0 0.00 50.7 82.8
4/19/19 - 2000 63.4 70 53.6 5.1 SSE | 163 9.8 S | 188 0.00 2 0.00 50.7 82.8
4/19/19 - 1900 69.5 53 51.3 6.1 SW | 218 14.5 SW | 221 0.00 11 0.00 50.7 82.8
4/19/19 - 1800 74.1 43 50.1 8.9 WSW | 257 17.0 SW | 216 0.00 32 0.00 50.7 82.8
4/19/19 - 1700 79.6 43 55.4 6.0 WSW | 237 12.1 WSW | 238 0.00 71 0.00 50.7 82.8
4/19/19 - 1600 81.6 38 53.4 7.3 W | 261 12.1 W | 262 0.00 91 0.00 50.7 82.8
4/19/19 - 1500 81.7 38 53.6 6.6 WSW | 249 12.1 SW | 236 0.00 97 0.00 50.7 82.4
4/19/19 - 1400 80.7 45 57.4 5.3 S | 180 11.6 E | 94 0.00 107 0.00 50.7 82.4
4/19/19 - 1300 77.8 50 58.0 3.2 SSE | 160 7.4 SSE | 147 0.00 107 0.00 50.7 79.2
4/19/19 - 1200 75.3 54 57.3 4.2 SE | 136 8.1 ESE | 106 0.00 84 0.00 50.7 76.5
4/19/19 - 1100 72.9 57 56.8 2.1 SSE | 159 7.6 S | 188 0.00 78 0.00 50.7 75.2
4/19/19 - 1000 68.6 67 57.1 1.6 NW | 325 4.6 NNW | 328 0.00 64 0.00 50.7 72.0
4/19/19 - 0900 62.6 79 55.9 1.1 NNE | 30 3.8 E | 92 0.00 39 0.00 50.7 65.5
4/19/19 - 0800 55.8 94 53.9 0.5 W | 279 2.6 WNW | 295 0.00 15 0.00 50.7 59.4
4/19/19 - 0700 51.3 96 50.2 1.7 NNW | 331 4.4 NW | 322 0.00 2 0.00 50.7 57.6
4/19/19 - 0600 52.3 96 51.2 1.9 WNW | 296 4.3 NW | 314 0.00 0 0.00 50.9 57.6
4/19/19 - 0500 51.9 96 50.8 0.9 NW | 325 2.9 NW | 321 0.00 0 0.00 50.9 57.6
4/19/19 - 0400 52.6 95 51.2 0.5 NNW | 327 2.2 NNW | 336 0.00 0 0.00 51.8 57.6
4/19/19 - 0300 54.1 93 52.2 0.2 NNW | 334 1.7 NW | 319 0.00 0 0.00 53.3 57.6
4/19/19 - 0200 55.6 92 53.4 0.9 NNW | 339 2.9 N | 0 0.00 0 0.00 55.0 57.6
4/19/19 - 0100 56.0 90 53.0 0.5 NW | 312 2.7 NW | 320 0.00 0 0.00 55.0 57.6
4/19/19 - 0000 58.5 86 54.4 1.8 NW | 326 5.1 W | 273 0.00 0 0.00 48.1 83.0
4/18/19 - 2300 59.7 84 54.7 1.5 NW | 315 3.6 NW | 305 0.00 0 0.00 48.1 83.0
4/18/19 - 2200 62.1 78 55.0 2.4 NW | 320 4.8 NW | 313 0.00 0 0.00 48.1 83.0
4/18/19 - 2100 65.3 74 56.6 2.9 NW | 315 4.4 NW | 304 0.00 0 0.00 48.1 83.0
4/18/19 - 2000 72.1 61 57.6 0.9 WNW | 302 2.9 NW | 313 0.00 3 0.00 48.1 83.0
4/18/19 - 1900 78.2 43 53.5 2.5 SSW | 203 5.9 SSE | 153 0.00 19 0.00 48.1 83.0
4/18/19 - 1800 80.3 40 54.0 5.1 SSE | 156 10.1 SSE | 156 0.00 45 0.00 48.1 83.0
4/18/19 - 1700 81.8 41 55.6 5.5 SSE | 151 9.6 SSE | 151 0.00 67 0.00 48.1 83.0
4/18/19 - 1600 82.2 31 48.7 4.9 E | 90 9.6 E | 87 0.00 88 0.00 48.1 83.0
4/18/19 - 1500 80.6 38 52.7 5.8 E | 88 10.3 ESE | 109 0.00 99 0.00 48.1 81.9
4/18/19 - 1400 78.6 43 54.0 6.5 E | 100 10.6 ESE | 107 0.00 104 0.00 48.1 79.6
4/18/19 - 1300 76.3 46 54.2 7.5 E | 97 11.5 E | 81 0.00 104 0.00 48.1 77.7
4/18/19 - 1200 73.7 51 54.6 5.0 ESE | 120 10.6 ESE | 120 0.00 96 0.00 48.1 75.4
4/18/19 - 1100 70.0 57 54.0 2.7 SSE | 152 6.9 SSE | 147 0.00 81 0.00 48.1 71.6
4/18/19 - 1000 65.8 65 53.6 1.0 S | 180 3.6 SSE | 154 0.00 61 0.00 48.1 68.2
4/18/19 - 0900 60.6 78 53.7 1.1 NNE | 18 4.6 NNW | 347 0.00 39 0.00 48.1 64.5
4/18/19 - 0800 52.3 95 50.9 2.2 NNW | 343 4.3 NNW | 347 0.00 17 0.00 48.1 55.9
4/18/19 - 0700 49.0 96 47.9 0.8 N | 356 2.6 N | 0 0.00 1 0.00 48.1 55.5
4/18/19 - 0600 48.6 95 47.3 1.3 NNW | 336 4.6 NW | 311 0.00 0 0.00 48.1 55.5
4/18/19 - 0500 49.7 93 47.7 0.8 NE | 49 2.2 S | 181 0.00 0 0.00 49.0 55.5
4/18/19 - 0400 52.1 91 49.7 1.3 WNW | 295 2.9 NW | 308 0.00 0 0.00 50.9 55.5
4/18/19 - 0300 52.1 91 49.6 0.7 WNW | 296 2.6 WNW | 288 0.00 0 0.00 51.2 55.5
4/18/19 - 0200 53.1 91 50.4 1.4 WNW | 298 3.3 WNW | 292 0.00 0 0.00 52.6 55.5
4/18/19 - 0100 54.4 88 50.9 1.8 WNW | 299 3.9 NW | 308 0.00 0 0.00 53.5 55.5
4/18/19 - 0000 54.8 88 51.4 1.0 NW | 312 2.7 N | 7 0.00 0 0.00 43.5 75.5
4/17/19 - 2300 56.9 85 52.6 1.2 NW | 324 3.9 NW | 314 0.00 0 0.00 43.5 75.5
4/17/19 - 2200 59.8 78 52.8 1.7 NW | 317 5.9 WNW | 294 0.00 0 0.00 43.5 75.5
4/17/19 - 2100 64.1 63 51.2 2.0 SW | 220 6.8 SSW | 202 0.00 0 0.00 43.5 75.5
4/17/19 - 2000 67.8 57 52.1 4.6 SW | 228 11.3 WSW | 249 0.00 3 0.00 43.5 75.5
4/17/19 - 1900 72.0 51 53.2 6.0 SW | 229 12.5 W | 271 0.00 24 0.00 43.5 75.5
4/17/19 - 1800 73.9 48 53.2 7.9 WSW | 253 13.5 W | 263 0.00 47 0.00 43.5 75.5
4/17/19 - 1700 74.1 44 50.8 6.9 SW | 220 11.3 S | 191 0.00 68 0.00 43.5 75.5
4/17/19 - 1600 73.5 46 51.4 6.3 SSW | 212 11.1 SW | 235 0.00 86 0.00 43.5 74.1
4/17/19 - 1500 73.0 48 52.1 5.0 S | 188 10.0 SSW | 208 0.00 98 0.00 43.5 73.9
4/17/19 - 1400 71.2 50 51.4 3.4 SSE | 165 9.5 S | 175 0.00 104 0.00 43.5 72.2
4/17/19 - 1300 69.5 50 50.1 3.6 SSE | 161 8.3 E | 86 0.00 104 0.00 43.5 70.8
4/17/19 - 1200 67.0 55 50.3 2.8 SE | 129 6.3 SE | 135 0.00 95 0.00 43.5 67.9
4/17/19 - 1100 64.7 63 52.0 3.1 ESE | 115 6.8 SE | 126 0.00 80 0.00 43.5 65.8
4/17/19 - 1000 62.2 68 51.7 1.6 SSE | 157 5.4 SSE | 155 0.00 61 0.00 43.5 63.5
4/17/19 - 0900 56.4 84 51.5 0.5 NNE | 22 2.9 NNW | 348 0.00 39 0.00 43.5 60.4
4/17/19 - 0800 49.0 96 48.0 0.5 NNW | 346 2.6 N | 350 0.00 17 0.00 43.5 52.3
4/17/19 - 0700 44.4 97 43.5 0.4 NNW | 328 3.3 WSW | 238 0.00 1 0.00 43.5 50.5
4/17/19 - 0600 46.0 96 45.1 1.1 NNW | 328 4.3 NNW | 340 0.00 0 0.00 44.8 50.5
4/17/19 - 0500 46.7 96 45.6 0.7 NW | 310 3.3 NW | 322 0.00 0 0.00 45.6 50.5
4/17/19 - 0400 47.2 95 45.7 0.8 WNW | 300 3.3 WNW | 291 0.00 0 0.00 46.0 50.5
4/17/19 - 0300 49.1 93 47.3 1.5 WNW | 299 4.3 NW | 309 0.00 0 0.00 48.0 50.5
4/17/19 - 0200 49.2 94 47.5 1.3 WNW | 299 3.8 WNW | 292 0.00 0 0.00 48.7 50.5
4/17/19 - 0100 49.8 94 48.0 1.9 NW | 324 3.9 NW | 314 0.00 0 0.00 49.3 50.5
4/17/19 - 0000 49.2 94 47.5 1.3 NNW | 331 4.1 N | 4 0.00 0 0.08 48.6 68.0
4/16/19 - 2300 50.3 91 47.9 0.7 NNW | 341 2.6 NNW | 341 0.00 0 0.08 48.8 68.0
4/16/19 - 2200 52.6 85 48.2 1.2 NW | 318 3.3 WNW | 301 0.00 0 0.08 48.8 68.0
4/16/19 - 2100 58.3 67 47.5 2.6 NE | 50 13.8 W | 275 0.00 0 0.08 48.8 68.0
4/16/19 - 2000 60.9 60 46.9 10.9 WSW | 253 16.5 WNW | 282 0.00 3 0.08 48.8 68.0
4/16/19 - 1900 64.2 59 49.8 8.0 SW | 235 15.3 W | 261 0.00 23 0.08 48.8 68.0
4/16/19 - 1800 66.6 56 50.5 6.3 SW | 223 11.3 WSW | 237 0.00 46 0.08 48.8 68.0
4/16/19 - 1700 67.0 54 50.0 5.4 SW | 232 10.6 WSW | 240 0.00 60 0.08 48.8 68.0
Max 89.2 97 58.0 12.9 - 21.9 - 0.00 109 0.08 71.5 90.6
Avg 63.6 65 48.9 4.1 - 8.8 - 0.00 34 - - -
Min 44.4 10 23.6 0.1 - 1.7 - 0.00 0 0.00 43.5 50.0
Total - - - - - - - 0.00 - - - -
Tip: Bookmark this page for easy future reference